Tiempo atmosférico en la estación meteorológica de Orozko, Bizkaia (270 m.)



Fecha
DESCASC
Temp. máxima en grados centígrados (hora)
DESCASC
Temp. mínima en grados centígrados (hora)
DESCASC
Temp. media en grados centígrados
DESCASC
Racha de viento máxima en m/sg (hora)
DESCASC
Velocidad máxima media en intervalos de 10 minutos(hora)
DESCASC
Precipitaciones diarias en mm
DESCASC
Precipitaciones de 00:00 a 06:00 en mm
DESCASC
Precipitaciones de 06:00 a 12:00 en mm
DESCASC
Precipitaciones de 12:00 a 18:00 en mm
DESCASC
Precipitaciones de 18:00 a 24:00 en mm
DESCASC
25-04-2019 18.4 (15:50) 9.2 (06:30) 13.8 16.67 (11:40) 6.67 (11:30) 0.2 0 0.2 0 0
24-04-2019 16.3 (13:40) 5.5 (04:50) 10.9 12.22 (13:20) 5 (07:40) 4.4 0.2 0 0.2 4
23-04-2019 17.8 (12:20) 8.8 (23:59) 13.3 8.89 (14:50) 4.72 (14:50) 3.6 0 0 3.6 0
22-04-2019 23.2 (16:20) 8.8 (00:00) 16 7.78 (16:50) 3.06 (16:50) 0 0 0 0 0
21-04-2019 16 (12:30) 4.9 (00:00) 10.5 4.72 (15:40) 1.94 (14:50) 1.8 0 0 0.2 1.6
20-04-2019 21.2 (15:50) 7.2 (00:00) 14.2 6.11 (11:20) 2.22 (11:30) 0 0 0 0 0
19-04-2019 22.3 (17:50) 10.3 (00:00) 16.3 14.44 (07:40) 5 (07:40) 2 1.8 0 0.2 0
18-04-2019 18.2 (00:00) 11 (00:00) 14.6 11.67 (00:30) 5.28 (02:50) 3.8 0 0.2 1.6 2
17-04-2019 24 (18:00) 10.3 (00:00) 17.2 16.94 (04:30) 7.22 (04:30) 0 0 0 0 0
16-04-2019 23.8 (17:50) 5.5 (00:00) 14.6 5.83 (18:50) 2.5 (16:50) 0.2 0 0.2 0 0
15-04-2019 26.3 (15:50) 9.7 (00:00) 18 11.11 (18:30) 4.44 (13:00) 23.2 0 0 15 8.2
14-04-2019 22.7 (15:50) 8.7 (00:00) 15.7 4.72 (17:00) 1.67 (16:40) 0 0 0 0 0
13-04-2019 24.9 (16:40) -0.9 (-00:0) 12 5 (18:00) 1.94 (18:10) 0 0 0 0 0
12-04-2019 17.3 (17:20) 4 (00:00) 10.6 5.83 (14:40) 2.22 (16:00) 0 0 0 0 0
11-04-2019 9.8 (18:20) 5.4 (00:00) 7.6 4.17 (15:40) 1.67 (15:40) 7.6 3.8 0.2 3.6 0
10-04-2019 14.1 (13:30) 4.5 (00:00) 9.3 5.28 (14:10) 1.94 (14:20) 5.2 0 0.2 3 2
09-04-2019 18.2 (14:50) 3.5 (00:00) 10.9 11.11 (08:00) 4.72 (08:20) 9 0.2 0 6 2.8
08-04-2019 14.5 (16:10) 5.3 (00:00) 9.9 11.39 (01:00) 4.72 (01:00) 5.4 0 2 3.4 0
07-04-2019 17.8 (17:10) 4.3 (00:00) 11 8.89 (23:40) 3.61 (23:30) 0.8 0.4 0.4 0 0
06-04-2019 16.7 (17:50) 2.7 (00:00) 9.7 12.22 (14:30) 4.17 (15:40) 3.4 0 0 0 3.4
05-04-2019 14.4 (13:10) 5.7 (00:00) 10 10.56 (00:50) 4.44 (00:50) 0.2 0 0 0.2 0
04-04-2019 15.9 (15:40) 1.4 (00:00) 8.6 9.17 (22:10) 3.61 (22:10) 2.4 1 1.4 0 0
03-04-2019 10 (13:20) 2.2 (00:00) 6.1 10.28 (14:10) 3.33 (14:10) 4 0.2 0.2 0.2 3.4
02-04-2019 16.7 (14:10) 4.5 (00:00) 10.6 6.94 (15:50) 2.22 (15:50) -- 0 -- 0 3
01-04-2019 16.5 (12:20) 8.8 (00:00) 12.7 5 (12:00) 2.78 (12:10) 0 0 0 0 0
31-03-2019 22.3 (15:30) 4.2 (00:00) 13.2 7.78 (17:10) 2.78 (16:40) 0 0 0 0 0
30-03-2019 23.8 (15:40) 7.3 (00:00) 15.5 12.22 (00:50) 5 (00:50) 0 0 0 0 0
29-03-2019 23.7 (17:10) 1.4 (00:00) 12.6 13.33 (23:00) 5.28 (21:40) 0 0 0 0 0
28-03-2019 16.8 (16:00) 4.2 (00:00) 10.5 6.39 (17:50) 2.5 (12:40) 0 0 0 0 0
27-03-2019 16 (14:10) 0.8 (00:00) 8.4 7.5 (15:40) 2.78 (16:00) 0 0 0 0 0

Gráficas

Temp. máximas Temp. mínimas Temp. medias Precipitaciones Rachas de viento máximas Velocidades máximas media en intervalos de 10 minutos

Datos horarios

Fecha y hora oficial Temperatura (ºC) Velocidad del viento (km/h) Dirección del viento Racha (km/h) Dirección de racha Precipitación (mm) Presión (hPa) Tendencia (hPa) Humedad (%)
2019-04-25 23:00:00 11.2 6 Norte 35 Noroeste 0 -- -- 57
2019-04-25 22:00:00 11.7 9 Noroeste 30 Oeste 0 -- -- 55
2019-04-25 21:00:00 13 12 Norte 35 Oeste 0 -- -- 55
2019-04-25 20:00:00 13.7 10 Oeste 37 Sudoeste 0 -- -- 48
2019-04-25 19:00:00 16.4 7 Norte 35 Sudoeste 0 -- -- 41
2019-04-25 18:00:00 15.9 7 Norte 40 Norte 0 -- -- 40
2019-04-25 17:00:00 16.9 7 Norte 32 Norte 0 -- -- 42
2019-04-25 16:00:00 16.7 9 Noroeste 39 Norte 0 -- -- 42
2019-04-25 15:00:00 16.8 8 Norte 37 Noroeste 0 -- -- 42
2019-04-25 14:00:00 15.3 10 Nordeste 40 Noroeste 0 -- -- 45
2019-04-25 13:00:00 14.9 11 Noroeste 48 Oeste 0 -- -- 50
2019-04-25 12:00:00 13.9 10 Nordeste 60 Oeste 0.2 -- -- 50
2019-04-25 11:00:00 12.6 23 Oeste 48 Sudoeste 0 -- -- 55
2019-04-25 10:00:00 11.7 12 Oeste 42 Sudoeste 0 -- -- 57
2019-04-25 09:00:00 10.3 20 Oeste 35 Oeste 0 -- -- 58
2019-04-25 08:00:00 9.2 10 Oeste 28 Oeste 0 -- -- 67
2019-04-25 07:00:00 9.6 13 Oeste 35 Oeste 0 -- -- 62
2019-04-25 06:00:00 9.5 7 Oeste 28 Sudoeste 0 -- -- 66
2019-04-25 05:00:00 9.7 5 Sur 24 Sudoeste 0 -- -- 70
2019-04-25 04:00:00 9.7 5 Oeste 19 Sudoeste 0 -- -- 79
2019-04-25 03:00:00 10.5 6 Oeste 19 Sur 0 -- -- 73
2019-04-25 02:00:00 11.2 8 Sudoeste 29 Sudoeste 0 -- -- 73
2019-04-25 01:00:00 11.7 10 Oeste 27 Sudoeste 0 -- -- 69
2019-04-25 00:00:00 11.4 4 Nordeste 11 Noroeste 0 -- -- 72
2019-04-24 23:00:00 11.2 3 Norte 15 Oeste 0 -- -- 80
2019-04-24 22:00:00 10.6 4 Noroeste 16 Sudoeste 0 -- -- 88
2019-04-24 21:00:00 11.4 4 Sudeste 24 Sudoeste 0 -- -- 84
2019-04-24 20:00:00 11.5 3 Sur 20 Oeste 1.6 -- -- 90
2019-04-24 19:00:00 12.5 5 Sur 32 Sudoeste 2.4 -- -- 84
2019-04-24 18:00:00 14.1 7 Sur 27 Sudoeste 0.2 -- -- 71
2019-04-24 17:00:00 13.3 6 Sudoeste 23 Sudoeste 0 -- -- 73
2019-04-24 16:00:00 13.9 11 Sudoeste 39 Sudoeste 0 -- -- 63
2019-04-24 15:00:00 13.7 13 Sudoeste 39 Sur 0 -- -- 55
2019-04-24 14:00:00 16 13 Sudoeste 44 Noroeste 0 -- -- 49
2019-04-24 13:00:00 15.1 13 Sudoeste 42 Sudoeste 0 -- -- 50
2019-04-24 12:00:00 12.4 17 Sudoeste 41 Sur 0 -- -- 56
2019-04-24 11:00:00 9.9 12 Oeste 41 Oeste 0 -- -- 60
2019-04-24 10:00:00 9.6 12 Oeste 37 Sudoeste 0 -- -- 59
2019-04-24 09:00:00 9.1 9 Sudoeste 32 Noroeste 0 -- -- 66
2019-04-24 08:00:00 8.6 10 Sudoeste 42 Sudoeste 0 -- -- 62
2019-04-24 07:00:00 8.5 11 Oeste 40 Sudoeste 0 -- -- 62
2019-04-24 06:00:00 7.9 7 Este 26 Sur 0 -- -- 69
2019-04-24 05:00:00 5.5 5 Oeste 10 Noroeste 0 -- -- 95
2019-04-24 04:00:00 6.4 2 Sudoeste 10 Sur 0 -- -- 92
2019-04-24 03:00:00 7.7 0 Calma 8 Sur 0 -- -- 94
2019-04-24 02:00:00 8.1 0 Calma 6 Sudeste 0 -- -- 93
2019-04-24 01:00:00 8.3 0 Calma 7 Sur 0.2 -- -- 90
2019-04-24 00:00:00 8.8 0 Calma 30 Norte 0 -- -- 81
2019-04-23 23:00:00 11 0 Calma 14 Oeste 0 -- -- 74
2019-04-23 22:00:00 11.8 7 Noroeste 28 Oeste 0 -- -- 61
2019-04-23 21:00:00 11.5 4 Noroeste 18 Oeste 0 -- -- 69
2019-04-23 20:00:00 12.2 3 Oeste 14 Oeste 0 -- -- 77
2019-04-23 19:00:00 13.6 4 Oeste 19 Oeste 0 -- -- 69
2019-04-23 18:00:00 14.2 5 Sudoeste 12 Este 0 -- -- 67
2019-04-23 17:00:00 13 3 Nordeste 10 Sudeste 0 -- -- 84
2019-04-23 16:00:00 11.3 2 Oeste 21 Nordeste 2.8 -- -- 91
2019-04-23 15:00:00 12.7 13 Noroeste 32 Noroeste 0.8 -- -- 73
2019-04-23 14:00:00 16.6 6 Norte 25 Norte 0 -- -- 60
2019-04-23 13:00:00 17.2 8 Nordeste 22 Norte 0 -- -- 59
2019-04-23 12:00:00 16.6 4 Norte 14 Este 0 -- -- 60
2019-04-23 11:00:00 15.1 4 Norte 12 Norte 0 -- -- 70
2019-04-23 10:00:00 14 2 Nordeste 15 Noroeste 0 -- -- 72
2019-04-23 09:00:00 14.1 7 Oeste 24 Sudoeste 0 -- -- 66
2019-04-23 08:00:00 13.9 6 Oeste 23 Sudoeste 0 -- -- 66
2019-04-23 07:00:00 13.8 9 Oeste 30 Sudoeste 0 -- -- 65
2019-04-23 06:00:00 11.9 3 Sudeste 15 Norte 0 -- -- 74
2019-04-23 05:00:00 13.5 6 Norte 17 Sudoeste 0 -- -- 65
2019-04-23 04:00:00 14.4 5 Noroeste 21 Noroeste 0 -- -- 61
2019-04-23 03:00:00 15.4 8 Sudoeste 24 Sudoeste 0 -- -- 55
2019-04-23 02:00:00 15.9 10 Sudoeste 22 Oeste 0 -- -- 54
2019-04-23 01:00:00 15.6 8 Oeste 20 Sudoeste 0 -- -- 55
2019-04-23 00:00:00 15.5 7 Oeste 24 Oeste 0 -- -- 56
2019-04-22 23:00:00 14.4 6 Sudoeste 17 Oeste 0 -- -- 62
2019-04-22 22:00:00 15.3 2 Sur 10 Sudoeste 0 -- -- 63
2019-04-22 21:00:00 17.1 2 Sudoeste 22 Sur 0 -- -- 56
2019-04-22 20:00:00 18.1 0 Calma 18 Norte 0 -- -- 51
2019-04-22 19:00:00 18.8 3 Nordeste 23 Sudoeste 0 -- -- 50
2019-04-22 18:00:00 20.1 9 Sudoeste 24 Oeste 0 -- -- 45
2019-04-22 17:00:00 21.6 8 Sudoeste 28 Sudoeste 0 -- -- 45
2019-04-22 16:00:00 22.7 6 Sudoeste 18 Sudoeste 0 -- -- 41
2019-04-22 15:00:00 21 5 Este 14 Noroeste 0 -- -- 48
2019-04-22 14:00:00 20.4 3 Nordeste 15 Noroeste 0 -- -- 49
2019-04-22 13:00:00 18.5 5 Oeste 15 Noroeste 0 -- -- 54
2019-04-22 12:00:00 16.9 4 Norte 9 Norte 0 -- -- 70
2019-04-22 11:00:00 13.8 0 Calma 4 Nordeste 0 -- -- 79
2019-04-22 10:00:00 11.3 0 Calma 3 Norte 0 -- -- 99
2019-04-22 09:00:00 9.7 0 Calma 2 Sudeste 0 -- -- 99
2019-04-22 08:00:00 8.8 0 Calma 4 Sur 0 -- -- 99
2019-04-22 07:00:00 8.9 0 Calma 2 Oeste 0 -- -- 98
2019-04-22 06:00:00 9.1 2 Sur 4 Sur 0 -- -- 98
2019-04-22 05:00:00 9.2 0 Calma 4 Sur 0 -- -- 98
2019-04-22 04:00:00 9.2 0 Calma 3 Sudeste 0 -- -- 98
2019-04-22 03:00:00 9.3 0 Calma 3 Sur 0 -- -- 97
2019-04-22 02:00:00 9.4 0 Calma 3 Oeste 0 -- -- 97
2019-04-22 01:00:00 9.5 0 Calma 3 Sur 0 -- -- 96
2019-04-22 00:00:00 9.8 0 Calma 4 Este 0 -- -- 95
2019-04-21 23:00:00 10.4 0 Calma 3 Sudoeste 0 -- -- 95
2019-04-21 22:00:00 11.1 0 Calma 4 Sudoeste 0 -- -- 95
2019-04-21 21:00:00 11.6 0 Calma 4 Sudoeste 0.4 -- -- 94
2019-04-21 20:00:00 12 0 Calma 6 Sudoeste 1.2 -- -- 92
2019-04-21 19:00:00 12.5 2 Oeste 5 Sudoeste 0 -- -- 92
2019-04-21 18:00:00 12.8 3 Oeste 8 Oeste 0 -- -- 92
2019-04-21 17:00:00 13 4 Sudoeste 13 Sudeste 0.2 -- -- 88
2019-04-21 16:00:00 14.2 3 Este 17 Este 0 -- -- 78
2019-04-21 15:00:00 15.5 5 Norte 16 Noroeste 0 -- -- 71
2019-04-21 14:00:00 16 4 Sudeste 14 Sudeste 0 -- -- 63
2019-04-21 13:00:00 14.9 4 Este 14 Norte 0 -- -- 67
2019-04-21 12:00:00 14.7 4 Nordeste 10 Norte 0 -- -- 65
2019-04-21 11:00:00 11.1 0 Calma 4 Nordeste 0 -- -- 88
2019-04-21 10:00:00 7.5 0 Calma 7 Sur 0 -- -- 98
2019-04-21 09:00:00 6 2 Sudoeste 5 Sur 0 -- -- 97
2019-04-21 08:00:00 5 2 Sur 9 Sur 0 -- -- 95
2019-04-21 07:00:00 5 0 Calma 6 Sudoeste 0 -- -- 93
2019-04-21 06:00:00 5.4 3 Sur 7 Sudoeste 0 -- -- 93
2019-04-21 05:00:00 5.8 3 Sur 6 Sudoeste 0 -- -- 92
2019-04-21 04:00:00 6.3 2 Sudoeste 5 Sur 0 -- -- 90
2019-04-21 03:00:00 7 3 Sudoeste 7 Sur 0 -- -- 88
2019-04-21 02:00:00 7.2 0 Calma 6 Sudoeste 0 -- -- 88
2019-04-21 01:00:00 8.2 0 Calma 8 Sudeste 0 -- -- 86
2019-04-21 00:00:00 9.7 3 Sudeste 10 Sur 0 -- -- 82
2019-04-20 23:00:00 10.6 3 Sur 10 Sur 0 -- -- 83
2019-04-20 22:00:00 11.9 0 Calma 4 Sur 0 -- -- 80
2019-04-20 21:00:00 14.2 3 Sudoeste 11 Este 0 -- -- 71
2019-04-20 20:00:00 16.1 6 Este 17 Sudeste 0 -- -- 63
2019-04-20 19:00:00 20 3 Nordeste 14 Sudoeste 0 -- -- 52
2019-04-20 18:00:00 20.3 4 Sudeste 21 Este 0 -- -- 51
2019-04-20 17:00:00 20.3 5 Este 19 Sudeste 0 -- -- 48
2019-04-20 16:00:00 21.1 6 Este 17 Sudeste 0 -- -- 45
2019-04-20 15:00:00 20.5 5 Este 15 Sudeste 0 -- -- 49
2019-04-20 14:00:00 20.4 3 Este 14 Sur 0 -- -- 55
2019-04-20 13:00:00 19.3 4 Este 17 Sudeste 0 -- -- 50
2019-04-20 12:00:00 17.4 2 Este 22 Sur 0 -- -- 59
2019-04-20 11:00:00 14.7 3 Norte 8 Norte 0 -- -- 72
2019-04-20 10:00:00 10.2 0 Calma 4 Norte 0 -- -- 98
2019-04-20 09:00:00 8.3 0 Calma 3 Norte 0 -- -- 98
2019-04-20 08:00:00 7.3 0 Calma 5 Sudoeste 0 -- -- 97
2019-04-20 07:00:00 7.4 2 Sudoeste 6 Sudoeste 0 -- -- 96
2019-04-20 06:00:00 7.4 2 Sur 5 Sudoeste 0 -- -- 95
2019-04-20 05:00:00 7.7 2 Sur 5 Sudeste 0 -- -- 95
2019-04-20 04:00:00 8 4 Sur 7 Sur 0 -- -- 93
2019-04-20 03:00:00 8.4 0 Calma 5 Sudoeste 0 -- -- 92
2019-04-20 02:00:00 9 2 Sudoeste 5 Sudoeste 0 -- -- 90
2019-04-20 01:00:00 10 2 Sudoeste 13 Sur 0 -- -- 87
2019-04-20 00:00:00 10.6 4 Sudoeste 8 Sudoeste 0 -- -- 85
2019-04-19 23:00:00 11.8 2 Sur 6 Sudoeste 0 -- -- 80
2019-04-19 22:00:00 13.7 2 Sudoeste 10 Sur 0 -- -- 74
2019-04-19 21:00:00 16 4 Sur 8 Sudoeste 0 -- -- 67
2019-04-19 20:00:00 18.7 0 Calma 15 Nordeste 0 -- -- 55
2019-04-19 19:00:00 21.5 5 Este 14 Nordeste 0 -- -- 46
2019-04-19 18:00:00 22.3 5 Sudeste 18 Sudeste 0 -- -- 45
2019-04-19 17:00:00 20.7 5 Este 12 Este 0 -- -- 51
2019-04-19 16:00:00 18.4 2 Sur 5 Sudeste 0 -- -- 60
2019-04-19 15:00:00 18.4 2 Norte 6 Norte 0 -- -- 64
2019-04-19 14:00:00 18 0 Calma 9 Sur 0.2 -- -- 61
2019-04-19 13:00:00 17.7 0 Calma 9 Noroeste 0 -- -- 56
2019-04-19 12:00:00 16.6 4 Norte 17 Este 0 -- -- 67
2019-04-19 11:00:00 15 4 Norte 21 Nordeste 0 -- -- 71
2019-04-19 10:00:00 14.4 4 Nordeste 36 Oeste 0 -- -- 69
2019-04-19 09:00:00 13.9 7 Nordeste 42 Sur 0 -- -- 69
2019-04-19 08:00:00 13.7 15 Sur 52 Sur 0 -- -- 63
2019-04-19 07:00:00 10.7 15 Sur 37 Sudoeste 0 -- -- 99
2019-04-19 06:00:00 10.4 7 Noroeste 18 Oeste 0.2 -- -- 99
2019-04-19 05:00:00 10.5 3 Nordeste 14 Norte 0.2 -- -- 99
2019-04-19 04:00:00 10.6 5 Norte 14 Nordeste 0 -- -- 99
2019-04-19 03:00:00 10.6 2 Oeste 6 Sudoeste 1.4 -- -- 98
2019-04-19 02:00:00 10.5 2 Sudoeste 5 Oeste 0 -- -- 98
2019-04-19 01:00:00 10.6 0 Calma 6 Sudoeste 0 -- -- 97
2019-04-19 00:00:00 11 2 Sudeste 6 Sudoeste 0 -- -- 96
2019-04-18 23:00:00 11.4 0 Calma 8 Sur 0.2 -- -- 96
2019-04-18 22:00:00 11.9 3 Sudoeste 8 Sudoeste 0 -- -- 95
2019-04-18 21:00:00 12.4 0 Calma 3 Noroeste 0.2 -- -- 95
2019-04-18 20:00:00 12.8 0 Calma 5 Sudoeste 1.2 -- -- 94
2019-04-18 19:00:00 13.1 0 Calma 17 Nordeste 0.4 -- -- 89
2019-04-18 18:00:00 13.6 3 Este 14 Nordeste 0 -- -- 85
2019-04-18 17:00:00 14 5 Este 17 Norte 0 -- -- 84
2019-04-18 16:00:00 14.9 0 Calma 7 Oeste 0 -- -- 82
2019-04-18 15:00:00 13.7 3 Norte 8 Noroeste 0 -- -- 94
2019-04-18 14:00:00 12.4 3 Nordeste 8 Noroeste 0.2 -- -- 95
2019-04-18 13:00:00 11.9 3 Norte 13 Nordeste 1.4 -- -- 94
2019-04-18 12:00:00 12.2 0 Calma 7 Este 0.2 -- -- 90
2019-04-18 11:00:00 12.7 3 Norte 13 Noroeste 0 -- -- 81
2019-04-18 10:00:00 12.7 4 Nordeste 26 Nordeste 0 -- -- 79
2019-04-18 09:00:00 13.5 4 Este 20 Norte 0 -- -- 76
2019-04-18 08:00:00 13.6 4 Nordeste 18 Nordeste 0 -- -- 72
2019-04-18 07:00:00 15.9 8 Sudoeste 28 Sudoeste 0 -- -- 61
2019-04-18 06:00:00 15.9 11 Sudoeste 37 Sudoeste 0 -- -- 64
2019-04-18 05:00:00 16.3 14 Sudoeste 34 Oeste 0 -- -- 56
2019-04-18 04:00:00 16.9 16 Sudoeste 35 Sudoeste 0 -- -- 54
2019-04-18 03:00:00 17.2 15 Sudoeste 42 Oeste 0 -- -- 52
2019-04-18 02:00:00 17.5 17 Sudoeste 32 Oeste 0 -- -- 52
2019-04-18 01:00:00 18.1 15 Sudoeste 42 Sudoeste 0 -- -- 49
2019-04-18 00:00:00 18.2 9 Oeste 30 Sudoeste 0 -- -- 49
2019-04-17 23:00:00 18 10 Sudoeste 46 Oeste 0 -- -- 57
2019-04-17 22:00:00 19.8 18 Sudoeste 52 Sudoeste 0 -- -- 46
2019-04-17 21:00:00 19.8 17 Sudoeste 43 Sudoeste 0 -- -- 46
2019-04-17 20:00:00 20.6 13 Sudoeste 48 Oeste 0 -- -- 47
2019-04-17 19:00:00 22.9 10 Sudoeste 26 Sudoeste 0 -- -- 45
2019-04-17 18:00:00 24 4 Este 30 Noroeste 0 -- -- 45
2019-04-17 17:00:00 21.7 15 Oeste 33 Oeste 0 -- -- 44
2019-04-17 16:00:00 22.4 15 Sudoeste 37 Sudoeste 0 -- -- 43
2019-04-17 15:00:00 22 15 Sudoeste 39 Sur 0 -- -- 44
2019-04-17 14:00:00 20.4 16 Sudoeste 41 Sudoeste 0 -- -- 46
2019-04-17 13:00:00 18.1 14 Sur 44 Sudoeste 0 -- -- 56
2019-04-17 12:00:00 16 13 Sur 46 Sur 0 -- -- 58
2019-04-17 11:00:00 15.6 15 Sur 44 Sur 0 -- -- 59
2019-04-17 10:00:00 15.3 18 Sudoeste 52 Sudoeste 0 -- -- 58
2019-04-17 09:00:00 14.7 10 Sudoeste 48 Sudoeste 0 -- -- 62
2019-04-17 08:00:00 14.3 18 Sudoeste 45 Sudoeste 0 -- -- 61
2019-04-17 07:00:00 15 10 Sudoeste 57 Sudoeste 0 -- -- 59
2019-04-17 06:00:00 15.8 25 Sudoeste 59 Sudoeste 0 -- -- 52
2019-04-17 05:00:00 16.5 21 Sudoeste 61 Sudoeste 0 -- -- 48
2019-04-17 04:00:00 16.7 22 Sudoeste 58 Sudoeste 0 -- -- 50
2019-04-17 03:00:00 17 18 Sudoeste 55 Sudoeste 0 -- -- 51
2019-04-17 02:00:00 16.5 14 Sudoeste 48 Sudoeste 0 -- -- 54
2019-04-17 01:00:00 11.3 6 Sudeste 23 Sur 0 -- -- 79
2019-04-17 00:00:00 10.6 3 Este 12 Sudoeste 0 -- -- 86
2019-04-16 23:00:00 12 2 Sudeste 8 Sur 0 -- -- 81
2019-04-16 22:00:00 13.8 2 Norte 8 Sudoeste 0 -- -- 73
2019-04-16 21:00:00 16.8 0 Calma 9 Oeste 0 -- -- 60
2019-04-16 20:00:00 20.3 0 Calma 13 Sudoeste 0 -- -- 54
2019-04-16 19:00:00 22.8 7 Oeste 21 Sudoeste 0 -- -- 39
2019-04-16 18:00:00 23.5 7 Sur 18 Sudoeste 0 -- -- 38
2019-04-16 17:00:00 22.7 7 Oeste 18 Oeste 0 -- -- 37
2019-04-16 16:00:00 21.8 4 Sudoeste 13 Sudoeste 0 -- -- 42
2019-04-16 15:00:00 20.4 2 Sur 13 Sur 0 -- -- 54
2019-04-16 14:00:00 18 3 Nordeste 10 Sur 0 -- -- 54
2019-04-16 13:00:00 17.7 4 Sur 10 Sur 0 -- -- 50
2019-04-16 12:00:00 15.4 3 Noroeste 7 Oeste 0 -- -- 64
2019-04-16 11:00:00 11.7 0 Calma 5 Oeste 0 -- -- 77
2019-04-16 10:00:00 8 0 Calma 4 Sudoeste 0 -- -- 99
2019-04-16 09:00:00 6 0 Calma 7 Sur 0 -- -- 98
2019-04-16 08:00:00 5.5 0 Calma 5 Sur 0 -- -- 97
2019-04-16 07:00:00 6.2 3 Sudoeste 8 Sur 0.2 -- -- 97
2019-04-16 06:00:00 6.9 3 Sur 11 Sudoeste 0 -- -- 97
2019-04-16 05:00:00 7.6 3 Sur 9 Sur 0 -- -- 96
2019-04-16 04:00:00 8.5 3 Sur 11 Sudoeste 0 -- -- 96
2019-04-16 03:00:00 9.2 3 Sur 10 Sudoeste 0 -- -- 97
2019-04-16 02:00:00 9.7 4 Sur 10 Sur 0 -- -- 96
2019-04-16 01:00:00 10.4 5 Sudoeste 10 Sur 0 -- -- 97
2019-04-16 00:00:00 10.7 0 Calma 10 Norte 0.2 -- -- 97
2019-04-15 23:00:00 11.2 3 Norte 8 Norte 2.8 -- -- 97
2019-04-15 22:00:00 11.3 2 Sur 9 Sudoeste 1 -- -- 96
2019-04-15 21:00:00 11.7 3 Sudoeste 10 Sudoeste 1.4 -- -- 94
2019-04-15 20:00:00 12.1 2 Sur 22 Noroeste 0.2 -- -- 93
2019-04-15 19:00:00 12.5 8 Norte 40 Norte 2.6 -- -- 90
2019-04-15 18:00:00 14.7 0 Calma 15 Norte 13.8 -- -- 90
2019-04-15 17:00:00 17.4 6 Norte 34 Norte 1.2 -- -- 77
2019-04-15 16:00:00 25.8 10 Sur 31 Sudoeste 0 -- -- 45
2019-04-15 15:00:00 25.3 12 Sudoeste 38 Sudoeste 0 -- -- 49
2019-04-15 14:00:00 22.3 12 Sudoeste 33 Sudoeste 0 -- -- 51
2019-04-15 13:00:00 22.1 16 Sudoeste 34 Sudoeste 0 -- -- 51
2019-04-15 12:00:00 21.9 12 Sudoeste 30 Sudoeste 0 -- -- 52
2019-04-15 11:00:00 17.5 5 Nordeste 17 Noroeste 0 -- -- 74
2019-04-15 10:00:00 13.8 2 Sudeste 8 Sudoeste 0 -- -- 94
2019-04-15 09:00:00 11.3 2 Este 10 Sudoeste 0 -- -- 98
2019-04-15 08:00:00 10.2 2 Sur 8 Sudoeste 0 -- -- 97
2019-04-15 07:00:00 9.9 2 Sudoeste 8 Sur 0 -- -- 97
2019-04-15 06:00:00 9.8 3 Sudoeste 8 Sudoeste 0 -- -- 96
2019-04-15 05:00:00 9.7 2 Sur 6 Sudoeste 0 -- -- 95
2019-04-15 04:00:00 9.9 3 Sudeste 9 Sur 0 -- -- 94
2019-04-15 03:00:00 10.3 3 Sur 8 Sudoeste 0 -- -- 93
2019-04-15 02:00:00 10.6 3 Sudoeste 6 Sur 0 -- -- 91
2019-04-15 01:00:00 11.2 0 Calma 6 Sur 0 -- -- 90
2019-04-15 00:00:00 11.8 4 Sudoeste 9 Sur 0 -- -- 88
2019-04-14 23:00:00 12.7 2 Sur 7 Sudoeste 0 -- -- 84
2019-04-14 22:00:00 14.6 3 Sur 8 Sudoeste 0 -- -- 78
2019-04-14 21:00:00 16.9 3 Sudoeste 7 Sudeste 0 -- -- 70
2019-04-14 20:00:00 19.1 2 Sur 11 Este 0 -- -- 60
2019-04-14 19:00:00 21.6 3 Este 13 Nordeste 0 -- -- 50
2019-04-14 18:00:00 22.1 5 Este 15 Este 0 -- -- 46
2019-04-14 17:00:00 22 5 Sudeste 17 Sur 0 -- -- 49
2019-04-14 16:00:00 22.6 5 Este 13 Este 0 -- -- 46
2019-04-14 15:00:00 20.9 3 Sur 11 Sudeste 0 -- -- 44
2019-04-14 14:00:00 19.4 4 Norte 13 Noroeste 0 -- -- 55
2019-04-14 13:00:00 19 3 Nordeste 10 Norte 0 -- -- 47
2019-04-14 12:00:00 18.7 2 Este 7 Norte 0 -- -- 53
2019-04-14 11:00:00 15.2 2 Nordeste 8 Norte 0 -- -- 57
2019-04-14 10:00:00 11.9 0 Calma 4 Norte 0 -- -- 66
2019-04-14 09:00:00 9.6 0 Calma 6 Sur 0 -- -- 84
2019-04-14 08:00:00 9 0 Calma 6 Sudoeste 0 -- -- 80
2019-04-14 07:00:00 9 2 Sudoeste 8 Sur 0 -- -- 80
2019-04-14 06:00:00 8.8 0 Calma 4 Sudoeste 0 -- -- 82
2019-04-14 05:00:00 9.1 2 Sudoeste 4 Sudoeste 0 -- -- 74
2019-04-14 04:00:00 9.3 0 Calma 4 Sudoeste 0 -- -- 74
2019-04-14 03:00:00 9.3 2 Sudoeste 5 Sudoeste 0 -- -- 74
2019-04-14 02:00:00 9.5 0 Calma 5 Sudoeste 0 -- -- 73
2019-04-14 01:00:00 9.9 0 Calma 5 Sudoeste 0 -- -- 72
2019-04-14 00:00:00 9.8 0 Calma 5 Sur 0 -- -- 73
2019-04-13 23:00:00 10.5 3 Sur 5 Sur 0 -- -- 64
2019-04-13 22:00:00 12.9 3 Sur 8 Sur 0 -- -- 59
2019-04-13 21:00:00 15 7 Sur 13 Sudoeste 0 -- -- 51
2019-04-13 20:00:00 19.4 5 Sudoeste 17 Este 0 -- -- 37
2019-04-13 19:00:00 22.8 5 Nordeste 17 Sudeste 0 -- -- 30
2019-04-13 18:00:00 24.1 6 Este 18 Sudeste 0 -- -- 23
2019-04-13 17:00:00 24.4 6 Nordeste 14 Este 0 -- -- 22
2019-04-13 16:00:00 24.3 5 Norte 15 Norte 0 -- -- 22
2019-04-13 15:00:00 23.3 0 Calma 14 Norte 0 -- -- 23
2019-04-13 14:00:00 22.2 3 Norte 13 Nordeste 0 -- -- 23
2019-04-13 13:00:00 19.8 4 Norte 10 Noroeste 0 -- -- 27
2019-04-13 12:00:00 15.8 4 Norte 8 Norte 0 -- -- 33
2019-04-13 11:00:00 9.1 2 Norte 4 Norte 0 -- -- 46
2019-04-13 10:00:00 3.3 0 Calma 3 Este 0 -- -- 64
2019-04-13 09:00:00 -0.1 0 Calma 5 Sudoeste 0 -- -- 82
2019-04-13 08:00:00 -0.9 3 Sudoeste 8 Sur 0 -- -- 83
2019-04-13 07:00:00 -0.7 3 Sudoeste 5 Sudoeste 0 -- -- 84
2019-04-13 06:00:00 -0.4 0 Calma 6 Sudoeste 0 -- -- 85
2019-04-13 05:00:00 0.1 3 Sur 5 Sudoeste 0 -- -- 86
2019-04-13 04:00:00 0.5 2 Sur 8 Sur 0 -- -- 83
2019-04-13 03:00:00 1.1 0 Calma 7 Sudoeste 0 -- -- 85
2019-04-13 02:00:00 1.8 3 Sudoeste 6 Sudoeste 0 -- -- 87
2019-04-13 01:00:00 2.9 3 Sur 7 Sur 0 -- -- 86
2019-04-13 00:00:00 4 2 Sur 9 Sur 0 -- -- 84
2019-04-12 23:00:00 5.7 5 Sur 10 Sur 0 -- -- 80
2019-04-12 22:00:00 7.5 3 Sur 11 Sur 0 -- -- 79
2019-04-12 21:00:00 9.6 5 Sudoeste 10 Sudoeste 0 -- -- 73
2019-04-12 20:00:00 13.6 3 Este 15 Sudeste 0 -- -- 56
2019-04-12 19:00:00 16.5 3 Este 17 Nordeste 0 -- -- 52
2019-04-12 18:00:00 17 5 Sudeste 18 Sudeste 0 -- -- 47
2019-04-12 17:00:00 16.4 5 Nordeste 14 Este 0 -- -- 51
2019-04-12 16:00:00 15.1 8 Sudeste 20 Sudeste 0 -- -- 55
2019-04-12 15:00:00 14.1 5 Este 21 Nordeste 0 -- -- 63
2019-04-12 14:00:00 13.9 5 Este 18 Nordeste 0 -- -- 59
2019-04-12 13:00:00 14.9 6 Sur 15 Sudoeste 0 -- -- 61
2019-04-12 12:00:00 11.2 3 Oeste 8 Norte 0 -- -- 78
2019-04-12 11:00:00 8.9 0 Calma 5 Norte 0 -- -- 97
2019-04-12 10:00:00 7.9 0 Calma 4 Oeste 0 -- -- 100
2019-04-12 09:00:00 7.2 0 Calma 5 Sur 0 -- -- 100
2019-04-12 08:00:00 6.8 0 Calma 3 Oeste 0 -- -- 100
2019-04-12 07:00:00 6.7 0 Calma 3 Sur 0 -- -- 99
2019-04-12 06:00:00 6.7 0 Calma 5 Sudeste 0 -- -- 99
2019-04-12 05:00:00 6.6 0 Calma 4 Sudoeste 0 -- -- 99
2019-04-12 04:00:00 6.5 0 Calma 4 Sur 0 -- -- 99
2019-04-12 03:00:00 6.5 2 Sur 8 Sur 0 -- -- 99
2019-04-12 02:00:00 6.4 3 Sur 6 Sur 0 -- -- 98
2019-04-12 01:00:00 7.4 0 Calma 4 Oeste 0 -- -- 98
2019-04-12 00:00:00 7.7 0 Calma 6 Sudoeste 0 -- -- 97
2019-04-11 23:00:00 7.8 0 Calma 4 Sudoeste 0 -- -- 97
2019-04-11 22:00:00 8 0 Calma 6 Sudeste 0 -- -- 96
2019-04-11 21:00:00 8.6 2 Sur 8 Sudoeste 0 -- -- 94
2019-04-11 20:00:00 9.2 3 Oeste 15 Nordeste 0 -- -- 93
2019-04-11 19:00:00 9.3 3 Nordeste 10 Noroeste 0 -- -- 92
2019-04-11 18:00:00 9.4 4 Oeste 10 Norte 0.4 -- -- 95
2019-04-11 17:00:00 9.3 2 Nordeste 10 Norte 1.2 -- -- 97
2019-04-11 16:00:00 9.4 3 Nordeste 15 Norte 0.6 -- -- 96
2019-04-11 15:00:00 9.3 4 Norte 12 Norte 0.6 -- -- 97
2019-04-11 14:00:00 9.3 4 Norte 10 Norte 0.6 -- -- 96
2019-04-11 13:00:00 9 2 Norte 8 Norte 0.2 -- -- 97
2019-04-11 12:00:00 8.9 3 Nordeste 10 Norte 0.2 -- -- 95
2019-04-11 11:00:00 8 2 Noroeste 9 Norte 0 -- -- 100
2019-04-11 10:00:00 7.6 2 Oeste 5 Sudeste 0 -- -- 100
2019-04-11 09:00:00 6.6 0 Calma 5 Sudeste 0 -- -- 100
2019-04-11 08:00:00 5.6 0 Calma 5 Sudoeste 0 -- -- 99
2019-04-11 07:00:00 5.6 3 Sudoeste 4 Sur 0 -- -- 99
2019-04-11 06:00:00 5.9 0 Calma 4 Sudoeste 0 -- -- 98
2019-04-11 05:00:00 6.7 0 Calma 4 Oeste 0.2 -- -- 98
2019-04-11 04:00:00 7.3 0 Calma 5 Oeste 1 -- -- 98
2019-04-11 03:00:00 7.3 0 Calma 6 Sur 0.8 -- -- 98
2019-04-11 02:00:00 7.5 3 Sudoeste 6 Sudoeste 1 -- -- 98
2019-04-11 01:00:00 7.7 2 Sudoeste 5 Sudoeste 0.8 -- -- 97
2019-04-11 00:00:00 8 0 Calma 5 Sur 0 -- -- 96
2019-04-10 23:00:00 8.6 0 Calma 7 Sudeste 0.8 -- -- 96
2019-04-10 22:00:00 8.9 0 Calma 5 Noroeste 1.2 -- -- 94
2019-04-10 21:00:00 9.5 2 Sur 5 Sudoeste 0 -- -- 93
2019-04-10 20:00:00 10.2 3 Sudoeste 9 Sudoeste 0 -- -- 91
2019-04-10 19:00:00 10.2 3 Sur 8 Sudoeste 0 -- -- 91
2019-04-10 18:00:00 10 3 Sudoeste 6 Sur 0.2 -- -- 91
2019-04-10 17:00:00 9.8 0 Calma 9 Sudeste 0.2 -- -- 92
2019-04-10 16:00:00 9.5 2 Sur 18 Sudeste 2.2 -- -- 88
2019-04-10 15:00:00 10.6 3 Sudeste 19 Sur 0.4 -- -- 85
2019-04-10 14:00:00 12.7 4 Este 15 Sudoeste 0 -- -- 65
2019-04-10 13:00:00 12.4 3 Norte 11 Noroeste 0 -- -- 70
2019-04-10 12:00:00 11.2 3 Sudeste 10 Sudeste 0.2 -- -- 93
2019-04-10 11:00:00 8.9 0 Calma 5 Oeste 0 -- -- 100
2019-04-10 10:00:00 6.9 0 Calma 4 Sudoeste 0 -- -- 100
2019-04-10 09:00:00 5.3 0 Calma 4 Sudeste 0 -- -- 100
2019-04-10 08:00:00 4.5 0 Calma 4 Sudoeste 0 -- -- 99
2019-04-10 07:00:00 5 2 Sudoeste 6 Sur 0 -- -- 99
2019-04-10 06:00:00 5.3 2 Sur 8 Sudeste 0 -- -- 99
2019-04-10 05:00:00 5.3 0 Calma 8 Sudeste 0 -- -- 98
2019-04-10 04:00:00 5.1 0 Calma 5 Sudoeste 0 -- -- 98
2019-04-10 03:00:00 5 0 Calma 7 Sur 0 -- -- 98
2019-04-10 02:00:00 5.1 2 Sudeste 6 Sur 0 -- -- 97
2019-04-10 01:00:00 5.2 3 Sudoeste 6 Sur 0 -- -- 97
2019-04-10 00:00:00 5.5 3 Sur 6 Sur 0 -- -- 96
2019-04-09 23:00:00 6.3 0 Calma 5 Sur 0 -- -- 95
2019-04-09 22:00:00 6.9 0 Calma 6 Sur 0 -- -- 95
2019-04-09 21:00:00 7.3 5 Sur 12 Sur 0.2 -- -- 94
2019-04-09 20:00:00 7.7 3 Sur 19 Norte 1.8 -- -- 93
2019-04-09 19:00:00 8.5 5 Norte 20 Norte 0.8 -- -- 92
2019-04-09 18:00:00 9.3 0 Calma 21 Noroeste 3.6 -- -- 90
2019-04-09 17:00:00 11.1 9 Noroeste 33 Norte 2.4 -- -- 77
2019-04-09 16:00:00 15.5 4 Este 27 Este 0 -- -- 51
2019-04-09 15:00:00 18.2 6 Sudoeste 17 Este 0 -- -- 42
2019-04-09 14:00:00 17.1 6 Noroeste 23 Norte 0 -- -- 46
2019-04-09 13:00:00 14.9 6 Nordeste 32 Oeste 0 -- -- 52
2019-04-09 12:00:00 14.6 11 Norte 26 Noroeste 0 -- -- 56
2019-04-09 11:00:00 12.6 8 Oeste 26 Sudoeste 0 -- -- 59
2019-04-09 10:00:00 10.5 12 Oeste 38 Oeste 0 -- -- 64
2019-04-09 09:00:00 9.9 11 Oeste 37 Sudoeste 0 -- -- 66
2019-04-09 08:00:00 9.5 14 Oeste 40 Sudoeste 0 -- -- 66
2019-04-09 07:00:00 7.7 3 Oeste 31 Sudoeste 0 -- -- 76
2019-04-09 06:00:00 3.7 4 Sudoeste 15 Oeste 0 -- -- 99
2019-04-09 05:00:00 3.5 3 Sudeste 9 Sudeste 0.2 -- -- 98
2019-04-09 04:00:00 3.6 2 Sur 8 Oeste 0 -- -- 98
2019-04-09 03:00:00 3.8 3 Sudoeste 8 Norte 0 -- -- 96
2019-04-09 02:00:00 4.2 2 Sudeste 7 Sur 0 -- -- 96
2019-04-09 01:00:00 4.6 3 Sur 8 Sur 0 -- -- 95
2019-04-09 00:00:00 5.3 3 Sur 6 Sur 0 -- -- 93
2019-04-08 23:00:00 6.3 3 Sur 7 Sudeste 0 -- -- 93
2019-04-08 22:00:00 7.6 0 Calma 8 Sur 0 -- -- 89
2019-04-08 21:00:00 9.2 0 Calma 6 Sudoeste 0 -- -- 85
2019-04-08 20:00:00 11.8 0 Calma 12 Sur 0 -- -- 78
2019-04-08 19:00:00 12.1 4 Sur 13 Sudeste 0 -- -- 78
2019-04-08 18:00:00 11.1 0 Calma 8 Sur 0 -- -- 85
2019-04-08 17:00:00 12.2 5 Sur 13 Sur 0.2 -- -- 74
2019-04-08 16:00:00 14.3 2 Sudeste 11 Sudoeste 0 -- -- 76
2019-04-08 15:00:00 13.2 5 Sudoeste 14 Oeste 0.6 -- -- 77
2019-04-08 14:00:00 11.2 4 Sudoeste 10 Sudeste 2.2 -- -- 90
2019-04-08 13:00:00 11.2 3 Este 6 Sudoeste 0.4 -- -- 91
2019-04-08 12:00:00 10.7 0 Calma 4 Oeste 1.8 -- -- 93
2019-04-08 11:00:00 10.5 0 Calma 4 Sudeste 0 -- -- 94
2019-04-08 10:00:00 9.9 0 Calma 6 Norte 0 -- -- 95
2019-04-08 09:00:00 9.7 0 Calma 6 Norte 0 -- -- 93
2019-04-08 08:00:00 9.5 2 Noroeste 10 Noroeste 0 -- -- 91
2019-04-08 07:00:00 10.9 2 Noroeste 10 Norte 0.2 -- -- 82
2019-04-08 06:00:00 11.8 3 Norte 33 Oeste 0 -- -- 68
2019-04-08 05:00:00 11.7 10 Oeste 31 Oeste 0 -- -- 68
2019-04-08 04:00:00 11.6 9 Oeste 33 Oeste 0 -- -- 63
2019-04-08 03:00:00 11.2 13 Sudoeste 35 Sudoeste 0 -- -- 62
2019-04-08 02:00:00 11.3 10 Oeste 40 Sudoeste 0 -- -- 59
2019-04-08 01:00:00 11.1 17 Oeste 41 Sudoeste 0 -- -- 59
2019-04-08 00:00:00 11.3 10 Oeste 32 Oeste 0 -- -- 58
2019-04-07 23:00:00 11.9 8 Oeste 24 Norte 0 -- -- 55
2019-04-07 22:00:00 12.4 5 Oeste 24 Oeste 0 -- -- 49
2019-04-07 21:00:00 13.3 6 Sudoeste 25 Sudoeste 0 -- -- 44
2019-04-07 20:00:00 14.4 5 Oeste 15 Oeste 0 -- -- 46
2019-04-07 19:00:00 15.8 9 Noroeste 22 Norte 0 -- -- 37
2019-04-07 18:00:00 17.1 6 Oeste 19 Noroeste 0 -- -- 36
2019-04-07 17:00:00 17.4 3 Nordeste 12 Este 0 -- -- 46
2019-04-07 16:00:00 14.5 2 Este 9 Sudeste 0 -- -- 55
2019-04-07 15:00:00 13.6 3 Sudeste 14 Este 0 -- -- 55
2019-04-07 14:00:00 11.8 3 Nordeste 17 Oeste 0 -- -- 61
2019-04-07 13:00:00 11.1 3 Nordeste 12 Oeste 0 -- -- 67
2019-04-07 12:00:00 10.4 2 Nordeste 18 Oeste 0 -- -- 82
2019-04-07 11:00:00 7.8 2 Norte 8 Sudeste 0 -- -- 100
2019-04-07 10:00:00 6.5 2 Sudeste 8 Sur 0.2 -- -- 100
2019-04-07 09:00:00 5.7 0 Calma 4 Norte 0 -- -- 99
2019-04-07 08:00:00 5.2 0 Calma 4 Oeste 0.2 -- -- 99
2019-04-07 07:00:00 4.9 0 Calma 3 Sur 0 -- -- 98
2019-04-07 06:00:00 4.7 3 Sur 5 Sudeste 0 -- -- 98
2019-04-07 05:00:00 4.4 0 Calma 4 Sudoeste 0 -- -- 97
2019-04-07 04:00:00 4.5 0 Calma 6 Sur 0 -- -- 97
2019-04-07 03:00:00 5 0 Calma 5 Oeste 0 -- -- 96
2019-04-07 02:00:00 5.6 0 Calma 4 Sur 0 -- -- 96
2019-04-07 01:00:00 5.9 0 Calma 7 Sur 0.4 -- -- 96
2019-04-07 00:00:00 6.2 2 Sudoeste 6 Sudoeste 0.8 -- -- 95
2019-04-06 23:00:00 6.3 0 Calma 8 Sudoeste 0 -- -- 93
2019-04-06 22:00:00 7.1 4 Sur 13 Sudoeste 0.8 -- -- 92
2019-04-06 21:00:00 7.8 0 Calma 11 Sur 0 -- -- 91
2019-04-06 20:00:00 8.6 5 Sur 26 Norte 1.8 -- -- 85
2019-04-06 19:00:00 12.7 7 Oeste 33 Oeste 0 -- -- 50
2019-04-06 18:00:00 15.4 13 Oeste 31 Sudoeste 0 -- -- 41
2019-04-06 17:00:00 14.9 4 Este 24 Sudoeste 0 -- -- 45
2019-04-06 16:00:00 15.5 8 Noroeste 30 Oeste 0 -- -- 42
2019-04-06 15:00:00 14.4 8 Norte 44 Noroeste 0 -- -- 43
2019-04-06 14:00:00 13.3 7 Nordeste 32 Noroeste 0 -- -- 48
2019-04-06 13:00:00 11.9 8 Nordeste 33 Sudoeste 0 -- -- 51
2019-04-06 12:00:00 12.5 9 Noroeste 28 Noroeste 0 -- -- 54
2019-04-06 11:00:00 10.1 8 Nordeste 24 Norte 0 -- -- 56
2019-04-06 10:00:00 8.2 6 Nordeste 26 Norte 0 -- -- 62
2019-04-06 09:00:00 5.7 3 Este 12 Norte 0 -- -- 76
2019-04-06 08:00:00 3.2 3 Este 9 Sudeste 0 -- -- 90
2019-04-06 07:00:00 2.9 0 Calma 8 Sudoeste 0 -- -- 93
2019-04-06 06:00:00 3.3 2 Sudoeste 8 Sudeste 0 -- -- 90
2019-04-06 05:00:00 4.2 0 Calma 7 Sudoeste 0 -- -- 89
2019-04-06 04:00:00 5.1 3 Sur 5 Sur 0 -- -- 88
2019-04-06 03:00:00 5.6 2 Sudoeste 4 Oeste 0 -- -- 87
2019-04-06 02:00:00 5.7 0 Calma 5 Sudoeste 0 -- -- 90
2019-04-06 01:00:00 5.1 0 Calma 5 Sur 0 -- -- 89
2019-04-06 00:00:00 5.7 0 Calma 6 Sur 0 -- -- 85
2019-04-05 23:00:00 7.1 2 Sur 8 Sur 0 -- -- 83
2019-04-05 22:00:00 8.4 4 Sudoeste 8 Sudoeste 0 -- -- 77
2019-04-05 21:00:00 9.8 3 Sur 12 Sudeste 0 -- -- 75
2019-04-05 20:00:00 10.8 3 Sudeste 14 Oeste 0 -- -- 61
2019-04-05 19:00:00 12 8 Oeste 19 Oeste 0 -- -- 52
2019-04-05 18:00:00 12.9 4 Nordeste 15 Sudoeste 0 -- -- 47
2019-04-05 17:00:00 13.8 4 Sudoeste 21 Sudoeste 0 -- -- 45
2019-04-05 16:00:00 12.2 10 Oeste 35 Oeste 0 -- -- 53
2019-04-05 15:00:00 12.4 4 Oeste 25 Oeste 0.2 -- -- 68
2019-04-05 14:00:00 13.8 15 Oeste 33 Noroeste 0 -- -- 48
2019-04-05 13:00:00 14 14 Sudoeste 33 Oeste 0 -- -- 50
2019-04-05 12:00:00 12.2 6 Oeste 28 Oeste 0 -- -- 56
2019-04-05 11:00:00 10.6 9 Oeste 26 Oeste 0 -- -- 58
2019-04-05 10:00:00 10.1 6 Sudoeste 36 Sur 0 -- -- 58
2019-04-05 09:00:00 9.7 5 Oeste 19 Noroeste 0 -- -- 59
2019-04-05 08:00:00 9 3 Noroeste 19 Sudoeste 0 -- -- 62
2019-04-05 07:00:00 8.6 6 Oeste 14 Oeste 0 -- -- 57
2019-04-05 06:00:00 8.6 2 Oeste 19 Oeste 0 -- -- 61
2019-04-05 05:00:00 8.9 3 Sudeste 17 Sur 0 -- -- 62
2019-04-05 04:00:00 9.2 2 Este 21 Oeste 0 -- -- 62
2019-04-05 03:00:00 9.7 8 Sudoeste 28 Sudoeste 0 -- -- 57
2019-04-05 02:00:00 9.6 13 Sudoeste 37 Sudoeste 0 -- -- 58
2019-04-05 01:00:00 9.6 13 Oeste 38 Oeste 0 -- -- 60
2019-04-05 00:00:00 9.9 10 Oeste 28 Oeste 0 -- -- 56
2019-04-04 23:00:00 11 6 Oeste 33 Sur 0 -- -- 47
2019-04-04 22:00:00 11.9 9 Oeste 30 Sudoeste 0 -- -- 40
2019-04-04 21:00:00 11.8 3 Sur 14 Norte 0 -- -- 43
2019-04-04 20:00:00 12.7 4 Norte 19 Norte 0 -- -- 37
2019-04-04 19:00:00 13.5 6 Nordeste 24 Norte 0 -- -- 31
2019-04-04 18:00:00 15.2 4 Norte 28 Noroeste 0 -- -- 28
2019-04-04 17:00:00 15.6 8 Norte 28 Norte 0 -- -- 32
2019-04-04 16:00:00 15.2 9 Nordeste 26 Oeste 0 -- -- 35
2019-04-04 15:00:00 15 8 Sudoeste 21 Norte 0 -- -- 39
2019-04-04 14:00:00 13.6 5 Nordeste 21 Norte 0 -- -- 44
2019-04-04 13:00:00 11.1 7 Nordeste 18 Noroeste 0 -- -- 49
2019-04-04 12:00:00 8.7 4 Nordeste 15 Norte 0 -- -- 72
2019-04-04 11:00:00 5.5 4 Norte 14 Oeste 0 -- -- 99
2019-04-04 10:00:00 3.3 0 Calma 5 Sudeste 0 -- -- 100
2019-04-04 09:00:00 2 0 Calma 9 Sudeste 0.4 -- -- 100
2019-04-04 08:00:00 1.4 0 Calma 6 Sur 0 -- -- 99
2019-04-04 07:00:00 2 3 Este 8 Sudeste 1 -- -- 98
2019-04-04 06:00:00 2.2 0 Calma 8 Noroeste 0.2 -- -- 99
2019-04-04 05:00:00 1.9 0 Calma 8 Sudeste 0 -- -- 99
2019-04-04 04:00:00 1.8 0 Calma 4 Sur 0.2 -- -- 98
2019-04-04 03:00:00 2.3 3 Sudeste 7 Sudeste 0 -- -- 98
2019-04-04 02:00:00 2.2 2 Noroeste 7 Noroeste 0.2 -- -- 98
2019-04-04 01:00:00 2.3 3 Sur 9 Sur 0.4 -- -- 97
2019-04-04 00:00:00 2.3 2 Sudoeste 9 Sudeste 0.6 -- -- 96
2019-04-03 23:00:00 2.2 3 Sudeste 12 Oeste 0.2 -- -- 95
2019-04-03 22:00:00 2.5 3 Sudoeste 28 Este 2.2 -- -- 93
2019-04-03 21:00:00 4.4 3 Oeste 10 Sur 0 -- -- 92
2019-04-03 20:00:00 5.2 3 Sudoeste 21 Noroeste 0.4 -- -- 86
2019-04-03 19:00:00 7.4 5 Norte 20 Norte 0 -- -- 65
2019-04-03 18:00:00 7.2 7 Norte 27 Norte 0 -- -- 67
2019-04-03 17:00:00 7.2 6 Norte 16 Norte 0 -- -- 77
2019-04-03 16:00:00 6 3 Norte 22 Norte 0.2 -- -- 84
2019-04-03 15:00:00 7.3 5 Nordeste 37 Nordeste 0 -- -- 72
2019-04-03 14:00:00 7.9 11 Nordeste 29 Norte 0 -- -- 75
2019-04-03 13:00:00 9.2 4 Norte 17 Nordeste 0 -- -- 72
2019-04-03 12:00:00 7.7 4 Norte 14 Noroeste 0 -- -- 81
2019-04-03 11:00:00 6.3 0 Calma 14 Norte 0 -- -- 87
2019-04-03 10:00:00 6.1 6 Nordeste 18 Norte 0.2 -- -- 86
2019-04-03 09:00:00 6.4 3 Nordeste 19 Norte 0 -- -- 91
2019-04-03 08:00:00 6.3 5 Noroeste 15 Norte 0 -- -- 92
2019-04-03 07:00:00 6.6 3 Sudoeste 11 Sudoeste 0 -- -- 97
2019-04-03 06:00:00 6.7 4 Sudoeste 8 Sudoeste 0 -- -- 97
2019-04-03 05:00:00 6.7 3 Sur 6 Sudeste 0 -- -- 96
2019-04-03 04:00:00 6.9 0 Calma 9 Oeste 0 -- -- 96
2019-04-03 03:00:00 7.4 3 Sudoeste 11 Noroeste 0 -- -- 96
2019-04-03 02:00:00 7.8 3 Sudoeste 6 Oeste 0 -- -- 96
2019-04-03 01:00:00 8.1 0 Calma 0 Calma 0.2 -- -- 96
2019-04-03 00:00:00 8.4 0 Calma 10 Noroeste 1.8 -- -- 95
2019-04-02 23:00:00 9 0 Calma 6 Norte 0.2 -- -- 94
2019-04-02 22:00:00 9.5 2 Norte 6 Sur 0.6 -- -- 93
2019-04-02 21:00:00 10.2 3 Oeste 10 Sudoeste 0.4 -- -- 89
2019-04-02 20:00:00 11 2 Sudoeste 10 Sudeste 0 -- -- 78
2019-04-02 19:00:00 11.5 3 Sudeste 14 Sudeste 0 -- -- 75
2019-04-02 18:00:00 12.3 2 Este 22 Sudeste 0 -- -- 70
2019-04-02 17:00:00 13.4 7 Sur 19 Nordeste 0 -- -- 69
2019-04-02 16:00:00 14.4 6 Este 25 Sudeste 0 -- -- 65
2019-04-02 15:00:00 15.6 6 Sudeste 19 Sudeste 0 -- -- 61
2019-04-02 14:00:00 15.9 4 Sur 13 Sudeste 0 -- -- 63
2019-04-02 13:00:00 15.2 3 Sudoeste 18 Norte 0 -- -- 60
2019-04-02 12:00:00 13 5 Nordeste -- -- -- -- -- 70
2019-04-02 11:00:00 9.5 0 Calma 16 Norte 0 -- -- 92
2019-04-02 10:00:00 6.5 0 Calma 5 Norte 0 -- -- 98
2019-04-02 09:00:00 4.9 3 Sur 5 Sudoeste 0 -- -- 97
2019-04-02 08:00:00 4.5 2 Sur 6 Sudoeste 0 -- -- 96
2019-04-02 07:00:00 5 4 Sur 9 Sudoeste 0 -- -- 95
2019-04-02 06:00:00 5.4 3 Sur 7 Sur 0 -- -- 93
2019-04-02 05:00:00 6.3 2 Sudoeste 5 Sur 0 -- -- 92
2019-04-02 04:00:00 7.1 2 Sur 9 Sur 0 -- -- 90
2019-04-02 03:00:00 8.1 4 Sur 8 Sur 0 -- -- 88
2019-04-02 02:00:00 9.4 0 Calma 8 Sur 0 -- -- 84
2019-04-02 01:00:00 10.1 0 Calma 6 Sur 0 -- -- 84
2019-04-02 00:00:00 10.6 0 Calma 5 Sur 0 -- -- 83
2019-04-01 23:00:00 11.7 0 Calma 4 Sur 0 -- -- 79
2019-04-01 22:00:00 12.3 2 Sudeste 6 Sur 0 -- -- 78
2019-04-01 21:00:00 13.2 2 Sudoeste 7 Este 0 -- -- 75
2019-04-01 20:00:00 14.1 0 Calma 5 Oeste 0 -- -- 73
2019-04-01 19:00:00 14.2 0 Calma 7 Sur 0 -- -- 72
2019-04-01 18:00:00 14.8 2 Sudoeste 7 Sur 0 -- -- 69
2019-04-01 17:00:00 15.2 2 Sur 6 Norte 0 -- -- 60
2019-04-01 16:00:00 15.2 4 Norte 13 Sur 0 -- -- 61
2019-04-01 15:00:00 15.6 4 Nordeste 8 Este 0 -- -- 59
2019-04-01 14:00:00 14.8 4 Nordeste 13 Norte 0 -- -- 61
2019-04-01 13:00:00 15.1 3 Nordeste 17 Sudoeste 0 -- -- 58
2019-04-01 12:00:00 14.8 9 Sur 18 Sur 0 -- -- 62
2019-04-01 11:00:00 11.8 2 Nordeste 9 Norte 0 -- -- 73
2019-04-01 10:00:00 10.5 3 Norte 6 Norte 0 -- -- 77
2019-04-01 09:00:00 9 2 Sudoeste 5 Sur 0 -- -- 85
2019-04-01 08:00:00 8.9 2 Sudeste 6 Sudoeste 0 -- -- 83
2019-04-01 07:00:00 9.4 3 Sur 6 Sudoeste 0 -- -- 81
2019-04-01 06:00:00 9.9 0 Calma 8 Noroeste 0 -- -- 79
2019-04-01 05:00:00 10.5 3 Norte 11 Norte 0 -- -- 74
2019-04-01 04:00:00 10.5 3 Este 10 Nordeste 0 -- -- 67
2019-04-01 03:00:00 9.9 3 Sudoeste 10 Sudeste 0 -- -- 68
2019-04-01 02:00:00 9.7 0 Calma 6 Sudoeste 0 -- -- 72
2019-04-01 01:00:00 10 2 Sur 5 Sudoeste 0 -- -- 74
2019-04-01 00:00:00 10.3 0 Calma 8 Sudoeste 0 -- -- 73
2019-03-31 23:00:00 10.7 2 Sur 8 Sudoeste 0 -- -- 68
2019-03-31 22:00:00 11.7 3 Sur 9 Sudeste 0 -- -- 65
2019-03-31 21:00:00 13.8 5 Sur 9 Sur 0 -- -- 55
2019-03-31 20:00:00 16.9 3 Sudoeste 14 Este 0 -- -- 43
2019-03-31 19:00:00 20.1 7 Este 16 Sudeste 0 -- -- 35
2019-03-31 18:00:00 19.5 2 Este 28 Sudeste 0 -- -- 36
2019-03-31 17:00:00 18.1 7 Sur 26 Sudoeste 0 -- -- 41
2019-03-31 16:00:00 19.8 3 Sudoeste 17 Sur 0 -- -- 39
2019-03-31 15:00:00 20.7 4 Este 21 Sur 0 -- -- 36
2019-03-31 14:00:00 21.7 5 Sur 21 Sudoeste 0 -- -- 38
2019-03-31 13:00:00 19.5 4 Norte 9 Norte 0 -- -- 40
2019-03-31 12:00:00 16.9 4 Norte 9 Nordeste 0 -- -- 46
2019-03-31 11:00:00 11.9 0 Calma 7 Sudoeste 0 -- -- 60
2019-03-31 10:00:00 7.5 2 Sur 8 Sur 0 -- -- 81
2019-03-31 09:00:00 4.8 4 Sur 7 Sur 0 -- -- 87
2019-03-31 08:00:00 4.3 4 Sudoeste 6 Sudoeste 0 -- -- 87
2019-03-31 07:00:00 4.5 4 Sudoeste 9 Sur 0 -- -- 88
2019-03-31 06:00:00 4.7 3 Sudoeste 9 Sudoeste 0 -- -- 88
2019-03-31 05:00:00 5.1 4 Sur 9 Sudoeste 0 -- -- 88
2019-03-31 03:00:00 6.4 3 Sur 8 Sudoeste 0 -- -- 85
2019-03-31 01:00:00 7.2 2 Sudoeste 6 Sur 0 -- -- 82
2019-03-31 00:00:00 8.3 3 Sur 6 Sudoeste 0 -- -- 79
2019-03-30 23:00:00 9.5 0 Calma 5 Sudoeste 0 -- -- 74
2019-03-30 22:00:00 10.6 3 Sudoeste 9 Sur 0 -- -- 69
2019-03-30 21:00:00 11.6 3 Sudoeste 8 Sudoeste 0 -- -- 64
2019-03-30 20:00:00 13.6 5 Sudoeste 12 Sur 0 -- -- 57
2019-03-30 19:00:00 16.1 7 Sudoeste 12 Sudoeste 0 -- -- 48
2019-03-30 18:00:00 17.9 2 Sur 9 Sudeste 0 -- -- 41
2019-03-30 17:00:00 19.3 4 Sudeste 12 Sudeste 0 -- -- 40
2019-03-30 16:00:00 22 4 Este 14 Sudeste 0 -- -- 33
2019-03-30 15:00:00 22.4 6 Norte 17 Oeste 0 -- -- 30
2019-03-30 14:00:00 22.1 6 Norte 21 Norte 0 -- -- 35
2019-03-30 13:00:00 20.8 6 Norte 18 Norte 0 -- -- 33
2019-03-30 12:00:00 20.2 5 Oeste 14 Este 0 -- -- 33
2019-03-30 11:00:00 17.2 4 Nordeste 14 Sudeste 0 -- -- 41
2019-03-30 10:00:00 13.4 3 Norte 11 Este 0 -- -- 51
2019-03-30 09:00:00 10.1 4 Noroeste 8 Noroeste 0 -- -- 60
2019-03-30 08:00:00 7.3 2 Sur 7 Sudoeste 0 -- -- 68
2019-03-30 07:00:00 8.4 0 Calma 10 Noroeste 0 -- -- 61
2019-03-30 06:00:00 10.1 4 Noroeste 15 Este 0 -- -- 53
2019-03-30 05:00:00 11.3 0 Calma 11 Sudeste 0 -- -- 50
2019-03-30 04:00:00 13.8 6 Oeste 43 Oeste 0 -- -- 40
2019-03-30 03:00:00 14.8 15 Sudoeste 44 Oeste 0 -- -- 35
2019-03-30 02:00:00 15 16 Oeste 42 Sudoeste 0 -- -- 37
2019-03-30 01:00:00 15.2 16 Sudoeste 44 Sudoeste 0 -- -- 39
2019-03-30 00:00:00 15.5 14 Oeste 36 Sudoeste 0 -- -- 39
2019-03-29 23:00:00 15.8 17 Sudoeste 48 Sudoeste 0 -- -- 37
2019-03-29 22:00:00 16.4 18 Sudoeste 40 Sudoeste 0 -- -- 34
2019-03-29 21:00:00 16.9 13 Sudoeste 29 Oeste 0 -- -- 30
2019-03-29 20:00:00 17.6 15 Sudoeste 35 Sudoeste 0 -- -- 29
2019-03-29 19:00:00 19.5 6 Oeste 19 Sur 0 -- -- 29
2019-03-29 18:00:00 22.6 8 Sudoeste 22 Sudoeste 0 -- -- 29
2019-03-29 17:00:00 23.6 5 Sudoeste 22 Sudoeste 0 -- -- 28
2019-03-29 16:00:00 23.1 11 Sudoeste 25 Sudoeste 0 -- -- 29
2019-03-29 15:00:00 22 6 Nordeste 31 Oeste 0 -- -- 31
2019-03-29 14:00:00 20.8 7 Norte 28 Sudoeste 0 -- -- 32
2019-03-29 13:00:00 19.3 9 Norte 24 Noroeste 0 -- -- 33
2019-03-29 12:00:00 18.1 4 Nordeste 13 Norte 0 -- -- 44
2019-03-29 11:00:00 14.5 3 Norte 7 Oeste 0 -- -- 56
2019-03-29 10:00:00 8.9 3 Oeste 8 Sudoeste 0 -- -- 75
2019-03-29 09:00:00 4 3 Sudoeste 8 Sur 0 -- -- 99
2019-03-29 08:00:00 1.6 0 Calma 8 Sudoeste 0 -- -- 97
2019-03-29 07:00:00 1.4 3 Sur 6 Sudoeste 0 -- -- 96
2019-03-29 06:00:00 1.5 3 Sur 6 Sur 0 -- -- 96
2019-03-29 05:00:00 1.7 3 Sur 8 Sur 0 -- -- 95
2019-03-29 04:00:00 2 3 Sudoeste 7 Sudoeste 0 -- -- 95
2019-03-29 03:00:00 2.3 4 Sur 5 Sudoeste 0 -- -- 95
2019-03-29 02:00:00 2.7 2 Sur 5 Sudoeste 0 -- -- 93
2019-03-29 01:00:00 3.4 3 Sur 7 Sur 0 -- -- 93
2019-03-29 00:00:00 4.2 0 Calma 7 Sur 0 -- -- 91
2019-03-28 23:00:00 4.9 3 Sur 7 Sur 0 -- -- 87
2019-03-28 22:00:00 6.2 3 Sur 9 Sur 0 -- -- 86
2019-03-28 21:00:00 7.5 4 Sur 9 Sur 0 -- -- 82
2019-03-28 20:00:00 9.9 0 Calma 10 Nordeste 0 -- -- 74
2019-03-28 19:00:00 12.3 4 Nordeste 18 Este 0 -- -- 65
2019-03-28 18:00:00 14.9 6 Nordeste 23 Nordeste 0 -- -- 56
2019-03-28 17:00:00 15.5 5 Nordeste 17 Este 0 -- -- 56
2019-03-28 16:00:00 16.8 6 Sudeste 17 Nordeste 0 -- -- 49
2019-03-28 15:00:00 15.6 6 Este 18 Este 0 -- -- 56
2019-03-28 14:00:00 15.3 4 Este 19 Este 0 -- -- 59
2019-03-28 13:00:00 15.1 6 Este 20 Sudeste 0 -- -- 54
2019-03-28 12:00:00 14.2 4 Este 14 Este 0 -- -- 57
2019-03-28 11:00:00 12.6 4 Norte 10 Norte 0 -- -- 64
2019-03-28 10:00:00 10.3 3 Norte 8 Norte 0 -- -- 82
2019-03-28 09:00:00 7.3 0 Calma 2 Norte 0 -- -- 90
2019-03-28 08:00:00 6.2 0 Calma 4 Sudoeste 0 -- -- 93
2019-03-28 07:00:00 6 2 Sur 4 Sur 0 -- -- 93
2019-03-28 06:00:00 5.7 0 Calma 3 Norte 0 -- -- 92
2019-03-28 05:00:00 6.2 0 Calma 2 Sudeste 0 -- -- 89
2019-03-28 04:00:00 6.4 0 Calma 4 Noroeste 0 -- -- 90
2019-03-28 03:00:00 6.3 0 Calma 4 Sur 0 -- -- 90
2019-03-28 02:00:00 6.1 0 Calma 2 Sudoeste 0 -- -- 90
2019-03-28 01:00:00 5.6 0 Calma 4 Oeste 0 -- -- 91
2019-03-28 00:00:00 5.2 0 Calma 6 Sudeste 0 -- -- 88
2019-03-27 23:00:00 5.5 3 Sur 8 Sur 0 -- -- 84
2019-03-27 22:00:00 7 2 Sur 7 Este 0 -- -- 79
2019-03-27 21:00:00 8.4 2 Norte 13 Sudeste 0 -- -- 73
2019-03-27 20:00:00 9.1 3 Este 16 Norte 0 -- -- 70
2019-03-27 19:00:00 10.8 5 Este 15 Este 0 -- -- 62
2019-03-27 18:00:00 12.2 6 Este 22 Sudeste 0 -- -- 56
2019-03-27 17:00:00 14.7 6 Este 21 Este 0 -- -- 48
2019-03-27 16:00:00 14.4 10 Nordeste 27 Norte 0 -- -- 50
2019-03-27 15:00:00 15 8 Nordeste 22 Norte 0 -- -- 47
2019-03-27 14:00:00 15.7 5 Nordeste 18 Este 0 -- -- 46
2019-03-27 13:00:00 15 5 Sudeste 23 Sur 0 -- -- 45
2019-03-27 12:00:00 14.2 5 Sur 14 Sudoeste 0 -- -- 48
2019-03-27 11:00:00 11.4 3 Norte 7 Norte 0 -- -- 64
2019-03-27 10:00:00 7.1 2 Norte 5 Norte 0 -- -- 83
2019-03-27 09:00:00 2.8 0 Calma 4 Sur 0 -- -- 99
2019-03-27 08:00:00 1 3 Sudoeste 5 Sudoeste 0 -- -- 96
2019-03-27 07:00:00 1.1 0 Calma 4 Sudoeste 0 -- -- 95
2019-03-27 06:00:00 2 0 Calma 7 Sur 0 -- -- 95
2019-03-27 05:00:00 1.9 2 Sudoeste 6 Sudoeste 0 -- -- 95
2019-03-27 04:00:00 2.1 0 Calma 6 Sudoeste 0 -- -- 93
2019-03-27 03:00:00 2.5 0 Calma 4 Sudoeste 0 -- -- 91
2019-03-27 02:00:00 3.2 3 Sur 5 Sudoeste 0 -- -- 88
2019-03-27 01:00:00 4 3 Sur 8 Sudeste 0 -- -- 85
2019-03-27 00:00:00 5 3 Sudeste 6 Sudeste 0 -- -- 83